Time;durP1;ratioP1;P1;durP2;ratioP2;P2;SDS_P1;SDS_P2;PMS_P1;PMS_P2;Temp;Humidity;BMP_temperature;BMP_pressure;BME280_temperature;BME280_humidity;BME280_pressure;Samples;Min_cycle;Max_cycle;Signal;HPM_P1;HPM_P2
2023/03/03 00:00:58;;;;;;;124.57;44.57;;;-0.50;99.90;;;;;;4768191;30;20191;-74
2023/03/03 00:03:26;;;;;;;125.43;44.43;;;-0.50;99.90;;;;;;4768078;30;20220;-75
2023/03/03 00:05:53;;;;;;;125.83;43.93;;;-0.50;99.90;;;;;;4767737;30;20204;-72
2023/03/03 00:08:21;;;;;;;124.17;43.47;;;-0.50;99.90;;;;;;4768080;30;20351;-75
2023/03/03 00:10:48;;;;;;;119.70;43.33;;;-0.50;99.90;;;;;;4768153;30;20643;-74
2023/03/03 00:13:21;;;;;;;122.07;44.23;;;-0.50;99.90;;;;;;4769196;30;20210;-75
2023/03/03 00:15:49;;;;;;;116.80;43.00;;;-0.40;99.90;;;;;;4767819;30;20246;-72
2023/03/03 00:18:21;;;;;;;120.73;42.80;;;-0.50;99.90;;;;;;4767709;30;20197;-72
2023/03/03 00:20:52;;;;;;;124.70;43.03;;;-0.40;99.90;;;;;;4769076;30;20212;-71
2023/03/03 00:23:36;;;;;;;121.20;43.30;;;-0.50;99.90;;;;;;4767594;30;20712;-74
2023/03/03 00:26:15;;;;;;;117.23;43.67;;;-0.50;99.90;;;;;;4767593;30;20665;-72
2023/03/03 00:28:51;;;;;;;119.37;42.30;;;-0.50;99.90;;;;;;4769073;30;20247;-74
2023/03/03 00:31:34;;;;;;;112.80;42.67;;;-0.60;99.90;;;;;;4767528;30;20240;-73
2023/03/03 00:34:16;;;;;;;120.80;44.23;;;-0.70;99.90;;;;;;4767627;30;20623;-75
2023/03/03 00:36:43;;;;;;;119.97;43.50;;;-0.80;99.90;;;;;;4767525;30;20211;-73
2023/03/03 00:39:16;;;;;;;123.47;45.60;;;-0.80;99.90;;;;;;4767673;30;20240;-76
2023/03/03 00:41:43;;;;;;;123.60;43.93;;;-0.90;99.90;;;;;;4767659;30;20664;-73
2023/03/03 00:44:28;;;;;;;115.77;42.00;;;-0.90;99.90;;;;;;4767938;30;20210;-74
2023/03/03 00:46:56;;;;;;;123.37;44.70;;;-0.80;99.90;;;;;;4768929;30;20237;-73
2023/03/03 00:49:26;;;;;;;119.77;44.10;;;-0.80;99.90;;;;;;4767909;30;20233;-75
2023/03/03 00:51:53;;;;;;;124.40;43.27;;;-0.70;99.90;;;;;;4771106;30;20266;-75
2023/03/03 00:54:20;;;;;;;122.00;43.90;;;-0.70;99.90;;;;;;4766719;30;20214;-73
2023/03/03 00:56:46;;;;;;;118.97;43.67;;;-0.80;99.90;;;;;;4754379;30;20197;-75
2023/03/03 00:59:13;;;;;;;120.23;43.77;;;-0.80;99.90;;;;;;4752934;30;20591;-73
2023/03/03 01:01:40;;;;;;;119.63;42.37;;;-0.90;99.90;;;;;;4754332;30;20690;-72
2023/03/03 01:04:07;;;;;;;123.20;43.60;;;-0.80;99.90;;;;;;4754158;30;20280;-72
2023/03/03 01:06:34;;;;;;;124.97;44.27;;;-0.80;99.90;;;;;;4767944;30;20211;-73
2023/03/03 01:09:01;;;;;;;113.77;42.93;;;-0.90;99.90;;;;;;4770115;30;20227;-74
2023/03/03 01:11:28;;;;;;;118.77;42.60;;;-0.80;99.90;;;;;;4770512;30;20620;-74
2023/03/03 01:13:55;;;;;;;111.67;42.07;;;-0.90;99.90;;;;;;4770539;30;20223;-72
2023/03/03 01:16:22;;;;;;;112.83;41.97;;;-0.90;99.90;;;;;;4770286;30;20209;-72
2023/03/03 01:18:49;;;;;;;114.40;40.27;;;-0.80;99.90;;;;;;4770338;30;20529;-74
2023/03/03 01:21:16;;;;;;;112.17;41.90;;;-0.80;99.90;;;;;;4771372;30;20242;-73
2023/03/03 01:23:43;;;;;;;111.50;40.33;;;-0.80;99.90;;;;;;4770217;30;20264;-72
2023/03/03 01:26:10;;;;;;;109.07;39.80;;;-0.80;99.90;;;;;;4770081;30;20883;-74
2023/03/03 01:28:36;;;;;;;107.77;38.50;;;-0.80;99.90;;;;;;4771357;30;20652;-74
2023/03/03 01:31:04;;;;;;;105.13;39.83;;;-0.80;99.90;;;;;;4770151;30;20326;-75
2023/03/03 01:33:33;;;;;;;105.77;39.17;;;-0.80;99.90;;;;;;4770313;30;20211;-73
2023/03/03 01:36:01;;;;;;;108.13;40.60;;;-0.80;99.90;;;;;;4755171;30;20213;-73
2023/03/03 01:38:28;;;;;;;100.37;38.10;;;-0.80;99.90;;;;;;4769856;30;20207;-73
2023/03/03 01:40:57;;;;;;;109.43;39.73;;;-0.80;99.90;;;;;;4771327;30;20671;-73
2023/03/03 01:43:32;;;;;;;101.57;39.13;;;-0.90;99.90;;;;;;4770080;30;20202;-73
2023/03/03 01:45:58;;;;;;;100.20;38.13;;;-0.90;99.90;;;;;;4769856;30;20285;-73
2023/03/03 01:48:28;;;;;;;100.10;38.67;;;-0.90;99.90;;;;;;4771195;30;20235;-74
2023/03/03 01:51:05;;;;;;;97.97;38.10;;;-1.00;99.90;;;;;;4771007;30;20297;-75
2023/03/03 01:53:42;;;;;;;101.83;39.20;;;-0.90;99.90;;;;;;4770064;30;20208;-74
2023/03/03 01:56:09;;;;;;;105.17;38.63;;;-1.00;99.90;;;;;;4769641;30;20293;-74
2023/03/03 01:58:43;;;;;;;103.43;37.93;;;-0.90;99.90;;;;;;4770979;30;20204;-73
2023/03/03 02:01:14;;;;;;;96.70;36.53;;;-0.90;99.90;;;;;;4769891;30;20218;-74
2023/03/03 02:03:42;;;;;;;107.33;36.73;;;-1.00;99.90;;;;;;4768874;30;20203;-75
2023/03/03 02:06:14;;;;;;;106.53;38.50;;;-1.10;99.90;;;;;;4769567;30;20648;-74
2023/03/03 02:08:50;;;;;;;92.53;36.90;;;-1.10;99.90;;;;;;4769801;30;20223;-73
2023/03/03 02:11:19;;;;;;;102.10;38.60;;;-1.10;99.90;;;;;;4770846;30;20564;-74
2023/03/03 02:13:46;;;;;;;99.33;37.40;;;-1.10;99.90;;;;;;4770654;30;20611;-74
2023/03/03 02:16:13;;;;;;;95.40;37.37;;;-1.10;99.90;;;;;;4770695;30;20210;-74
2023/03/03 02:18:40;;;;;;;97.97;37.13;;;-1.20;99.90;;;;;;4769458;30;20218;-75
2023/03/03 02:21:15;;;;;;;108.07;39.33;;;-1.20;99.90;;;;;;4769700;30;20203;-75
2023/03/03 02:24:11;;;;;;;97.30;37.43;;;-1.20;99.90;;;;;;4769273;30;20230;-75
2023/03/03 02:26:40;;;;;;;104.40;37.30;;;-1.10;99.90;;;;;;4769095;30;20610;-72
2023/03/03 02:29:09;;;;;;;97.50;38.13;;;-1.20;99.90;;;;;;4770183;30;20221;-74
2023/03/03 02:31:37;;;;;;;99.77;36.67;;;-1.20;99.90;;;;;;4769736;30;20187;-75
2023/03/03 02:34:04;;;;;;;103.73;38.93;;;-1.20;99.90;;;;;;4768503;30;20307;-75
2023/03/03 02:36:36;;;;;;;105.07;38.67;;;-1.20;99.90;;;;;;4768260;30;20210;-73
2023/03/03 02:39:16;;;;;;;101.50;38.37;;;-1.20;99.90;;;;;;4768233;30;20581;-74
2023/03/03 02:42:11;;;;;;;101.77;38.67;;;-1.20;99.90;;;;;;4768281;30;20210;-73
2023/03/03 02:44:56;;;;;;;94.83;37.30;;;-1.10;99.90;;;;;;4768286;30;20211;-74
2023/03/03 02:47:23;;;;;;;96.03;36.23;;;-1.10;99.90;;;;;;4767947;30;20690;-72
2023/03/03 02:49:50;;;;;;;94.90;36.57;;;-1.20;99.90;;;;;;4769391;30;20230;-73
2023/03/03 02:52:17;;;;;;;96.77;37.17;;;-1.20;99.90;;;;;;4769349;30;20269;-74
2023/03/03 02:54:44;;;;;;;98.63;37.43;;;-1.10;99.90;;;;;;4767724;30;20217;-71
2023/03/03 02:57:11;;;;;;;96.50;36.13;;;-1.10;99.90;;;;;;4767977;30;20215;-73
2023/03/03 02:59:38;;;;;;;104.17;36.63;;;-1.10;99.90;;;;;;4767852;30;20205;-73
2023/03/03 03:02:06;;;;;;;96.20;35.87;;;-1.10;99.90;;;;;;4767679;30;20222;-71
2023/03/03 03:04:33;;;;;;;101.73;38.70;;;-1.10;99.90;;;;;;4767678;30;20217;-72
2023/03/03 03:07:00;;;;;;;96.90;36.97;;;-1.20;99.90;;;;;;4767788;30;20195;-71
2023/03/03 03:09:27;;;;;;;100.80;37.47;;;-1.20;99.90;;;;;;4767769;30;20252;-72
2023/03/03 03:11:54;;;;;;;93.93;36.73;;;-1.10;99.90;;;;;;4767819;30;20612;-74
2023/03/03 03:14:22;;;;;;;100.60;35.43;;;-1.10;99.90;;;;;;4769029;30;20216;-75
2023/03/03 03:16:49;;;;;;;93.43;36.37;;;-1.00;99.90;;;;;;4767982;30;20228;-75
2023/03/03 03:19:16;;;;;;;95.73;35.87;;;-1.20;99.90;;;;;;4769004;30;20218;-75
2023/03/03 03:21:43;;;;;;;100.90;36.27;;;-1.10;99.90;;;;;;4769096;30;20224;-74
2023/03/03 03:24:10;;;;;;;92.17;36.43;;;-1.20;99.90;;;;;;4767488;30;20203;-75
2023/03/03 03:26:36;;;;;;;93.43;36.17;;;-1.20;99.90;;;;;;4767598;30;20203;-74
2023/03/03 03:29:03;;;;;;;100.40;36.37;;;-1.10;99.90;;;;;;4731624;30;1087136;-73
2023/03/03 03:31:30;;;;;;;95.50;36.00;;;-1.20;99.90;;;;;;4769652;30;20213;-72
2023/03/03 03:33:59;;;;;;;94.30;36.07;;;-1.20;99.90;;;;;;4768069;30;20220;-75
2023/03/03 03:36:27;;;;;;;97.90;37.10;;;-1.20;99.90;;;;;;4769497;30;20292;-75
2023/03/03 03:38:54;;;;;;;96.20;36.37;;;-1.30;99.90;;;;;;4768201;30;20208;-77
2023/03/03 03:41:20;;;;;;;96.33;36.07;;;-1.30;99.90;;;;;;4768251;30;20216;-72
2023/03/03 03:43:47;;;;;;;96.73;36.33;;;-1.30;99.90;;;;;;4767965;30;20218;-71
2023/03/03 03:46:14;;;;;;;100.40;37.73;;;-1.30;99.90;;;;;;4753175;30;20238;-71
2023/03/03 03:48:41;;;;;;;91.57;36.07;;;-1.30;99.90;;;;;;4769057;30;20232;-72
2023/03/03 03:51:10;;;;;;;98.07;34.93;;;-1.30;99.90;;;;;;4768013;30;20209;-72
2023/03/03 03:53:37;;;;;;;91.10;36.17;;;-1.30;99.90;;;;;;4752946;30;20210;-73
2023/03/03 03:56:04;;;;;;;87.00;34.30;;;-1.30;99.90;;;;;;4767911;30;20211;-73
2023/03/03 03:58:31;;;;;;;91.90;34.30;;;-1.30;99.90;;;;;;4769325;30;20216;-73
2023/03/03 04:01:07;;;;;;;93.87;34.13;;;-1.40;99.90;;;;;;4769281;30;20196;-72
2023/03/03 04:03:34;;;;;;;95.37;34.67;;;-1.30;99.90;;;;;;4767985;30;20208;-73
2023/03/03 04:06:01;;;;;;;94.23;34.50;;;-1.30;99.90;;;;;;4767763;30;20208;-72
2023/03/03 04:08:28;;;;;;;83.67;33.30;;;-1.30;99.90;;;;;;4769276;30;20205;-72
2023/03/03 04:10:55;;;;;;;89.47;34.10;;;-1.30;99.90;;;;;;4769245;30;20671;-72
2023/03/03 04:13:22;;;;;;;98.00;35.73;;;-1.30;99.90;;;;;;4769200;30;20228;-72
2023/03/03 04:15:49;;;;;;;89.03;34.73;;;-1.30;99.90;;;;;;4767764;30;20304;-71
2023/03/03 04:18:16;;;;;;;89.17;34.17;;;-1.40;99.90;;;;;;4769148;30;20669;-72
2023/03/03 04:20:42;;;;;;;88.27;34.63;;;-1.40;99.90;;;;;;4767850;30;20577;-72
2023/03/03 04:23:09;;;;;;;91.83;34.70;;;-1.30;99.90;;;;;;4768077;30;20234;-74
2023/03/03 04:25:36;;;;;;;89.80;34.67;;;-1.30;99.90;;;;;;4753440;30;20212;-75
2023/03/03 04:28:03;;;;;;;93.80;34.43;;;-1.40;99.90;;;;;;4756538;30;20405;-74
2023/03/03 04:30:32;;;;;;;87.83;33.20;;;-1.40;99.90;;;;;;4756208;30;20246;-75
2023/03/03 04:32:58;;;;;;;88.70;33.57;;;-1.40;99.90;;;;;;4772532;30;20196;-74
2023/03/03 04:35:25;;;;;;;91.10;33.83;;;-1.40;99.90;;;;;;4772372;30;20238;-75
2023/03/03 04:37:52;;;;;;;90.30;32.70;;;-1.50;99.90;;;;;;4772530;30;20206;-74
2023/03/03 04:40:19;;;;;;;90.50;31.70;;;-1.50;99.90;;;;;;4770994;30;20669;-74
2023/03/03 04:42:46;;;;;;;84.93;33.10;;;-1.50;99.90;;;;;;4772437;30;20188;-74
2023/03/03 04:45:13;;;;;;;84.57;31.37;;;-1.60;99.90;;;;;;4772437;30;20595;-74
2023/03/03 04:47:41;;;;;;;85.37;32.77;;;-1.50;99.90;;;;;;4771306;30;20215;-74
2023/03/03 04:50:09;;;;;;;87.73;32.90;;;-1.60;99.90;;;;;;4770995;30;20233;-75
2023/03/03 04:52:36;;;;;;;91.60;33.63;;;-1.60;99.90;;;;;;4770190;30;20197;-74
2023/03/03 04:55:06;;;;;;;85.63;32.30;;;-1.70;99.90;;;;;;4758027;30;20203;-72
2023/03/03 04:57:36;;;;;;;91.30;33.23;;;-1.70;99.90;;;;;;4754509;30;20259;-71
2023/03/03 05:00:05;;;;;;;88.93;33.27;;;-1.70;99.90;;;;;;4767499;30;20250;-72
2023/03/03 05:02:32;;;;;;;87.33;33.20;;;-1.70;99.90;;;;;;4753084;30;20212;-72
2023/03/03 05:04:59;;;;;;;94.77;33.27;;;-1.70;99.90;;;;;;4752857;30;20194;-72
2023/03/03 05:07:25;;;;;;;89.07;33.63;;;-1.70;99.90;;;;;;4752864;30;20569;-71
2023/03/03 05:09:52;;;;;;;90.37;32.97;;;-1.60;99.90;;;;;;4767610;30;20230;-71
2023/03/03 05:12:20;;;;;;;92.67;33.73;;;-1.60;99.90;;;;;;4754151;30;20214;-72
2023/03/03 05:14:47;;;;;;;100.57;34.73;;;-1.70;99.90;;;;;;4752515;30;20256;-72
2023/03/03 05:17:14;;;;;;;94.90;34.00;;;-1.70;99.90;;;;;;4767459;30;20213;-72
2023/03/03 05:19:40;;;;;;;90.20;33.73;;;-1.70;99.90;;;;;;4770493;30;20222;-72
2023/03/03 05:22:07;;;;;;;94.40;34.67;;;-1.70;99.90;;;;;;4770592;30;20213;-73
2023/03/03 05:24:34;;;;;;;90.63;34.03;;;-1.80;99.90;;;;;;4770136;30;21045;-72
2023/03/03 05:27:02;;;;;;;92.03;32.77;;;-1.80;99.90;;;;;;4770364;30;20222;-71
2023/03/03 05:29:30;;;;;;;95.27;35.13;;;-1.80;99.90;;;;;;4769881;30;20249;-71
2023/03/03 05:31:57;;;;;;;98.17;35.50;;;-1.80;99.90;;;;;;4770319;30;20313;-71
2023/03/03 05:34:24;;;;;;;103.50;35.30;;;-1.80;99.90;;;;;;4766290;30;20230;-70
2023/03/03 05:36:51;;;;;;;97.47;37.17;;;-1.80;99.90;;;;;;4768169;30;20216;-71
2023/03/03 05:39:18;;;;;;;102.00;36.73;;;-1.90;99.90;;;;;;4771847;30;20202;-72
2023/03/03 05:41:45;;;;;;;109.03;37.00;;;-1.80;99.90;;;;;;4770273;30;20226;-73
2023/03/03 05:44:12;;;;;;;99.37;36.13;;;-1.80;99.90;;;;;;4767547;30;20208;-73
2023/03/03 05:46:39;;;;;;;102.20;35.80;;;-1.80;99.90;;;;;;4765528;30;20220;-72
2023/03/03 05:49:06;;;;;;;104.63;37.70;;;-1.80;99.90;;;;;;4767617;30;20289;-72
2023/03/03 05:51:32;;;;;;;102.97;37.30;;;-1.80;99.90;;;;;;4768048;30;20234;-72
2023/03/03 05:53:59;;;;;;;107.83;37.30;;;-1.70;99.90;;;;;;4765564;30;20211;-74
2023/03/03 05:56:26;;;;;;;112.33;37.47;;;-1.60;99.90;;;;;;4766583;30;20518;-76
2023/03/03 05:58:53;;;;;;;111.67;38.10;;;-1.70;99.90;;;;;;4767279;30;20225;-74
2023/03/03 06:01:21;;;;;;;117.83;38.97;;;-1.70;99.90;;;;;;4768988;30;20199;-73
2023/03/03 06:03:47;;;;;;;112.33;37.50;;;-1.60;99.90;;;;;;4770077;30;20675;-73
2023/03/03 06:06:15;;;;;;;119.53;39.53;;;-1.60;99.90;;;;;;4770086;30;20556;-72
2023/03/03 06:08:42;;;;;;;115.67;37.77;;;-1.60;99.90;;;;;;4766714;30;20208;-75
2023/03/03 06:11:09;;;;;;;114.70;38.93;;;-1.60;99.90;;;;;;4769518;30;20347;-76
2023/03/03 06:13:36;;;;;;;115.70;38.97;;;-1.60;99.90;;;;;;4767709;30;20222;-77
2023/03/03 06:16:03;;;;;;;119.73;38.93;;;-1.60;99.90;;;;;;4767455;30;20212;-74
2023/03/03 06:18:30;;;;;;;119.60;38.33;;;-1.60;99.90;;;;;;4769623;30;20205;-79
2023/03/03 06:20:57;;;;;;;114.67;38.00;;;-1.60;99.90;;;;;;4770969;30;20201;-75
2023/03/03 06:23:24;;;;;;;123.27;39.37;;;-1.60;99.90;;;;;;4768728;30;20236;-74
2023/03/03 06:25:52;;;;;;;131.33;39.23;;;-1.60;99.90;;;;;;4769331;30;20201;-75
2023/03/03 06:28:19;;;;;;;123.40;38.07;;;-1.60;99.90;;;;;;4768414;30;20232;-73
2023/03/03 06:30:45;;;;;;;124.53;38.90;;;-1.60;99.90;;;;;;4770411;30;20273;-72
2023/03/03 06:33:12;;;;;;;132.70;40.43;;;-1.60;99.90;;;;;;4753234;30;20213;-73
2023/03/03 06:35:39;;;;;;;125.07;39.10;;;-1.60;99.90;;;;;;4768079;30;20212;-72
2023/03/03 06:38:06;;;;;;;121.50;39.33;;;-1.60;99.90;;;;;;4769819;30;20644;-71
2023/03/03 06:40:33;;;;;;;127.10;40.40;;;-1.50;99.90;;;;;;4767170;30;20688;-70
2023/03/03 06:43:02;;;;;;;120.67;37.50;;;-1.40;99.90;;;;;;4770595;30;20262;-71
2023/03/03 06:45:28;;;;;;;123.00;38.07;;;-1.40;99.90;;;;;;4767708;30;20226;-72
2023/03/03 06:47:55;;;;;;;122.17;38.40;;;-1.40;99.90;;;;;;4768441;30;20200;-74
2023/03/03 06:50:22;;;;;;;125.53;37.87;;;-1.40;99.90;;;;;;4767761;30;20603;-75
2023/03/03 06:52:58;;;;;;;120.40;39.27;;;-1.40;99.90;;;;;;4768159;30;20202;-73
2023/03/03 06:55:25;;;;;;;115.57;35.53;;;-1.40;99.90;;;;;;4765952;30;20603;-78
2023/03/03 06:57:54;;;;;;;115.43;35.30;;;-1.50;99.90;;;;;;4768468;30;20204;-73
2023/03/03 07:00:26;;;;;;;99.60;33.23;;;-1.40;99.90;;;;;;4769950;30;20270;-73
2023/03/03 07:03:06;;;;;;;110.00;33.03;;;-1.50;99.90;;;;;;4768563;30;20287;-74
2023/03/03 07:05:33;;;;;;;114.00;35.37;;;-1.50;99.90;;;;;;4767946;30;20299;-77
2023/03/03 07:08:00;;;;;;;112.93;33.90;;;-1.50;99.90;;;;;;4769007;30;20309;-71
2023/03/03 07:10:29;;;;;;;104.13;32.80;;;-1.50;99.90;;;;;;4769139;30;20230;-72
2023/03/03 07:13:13;;;;;;;109.70;31.83;;;-1.50;99.90;;;;;;4772126;30;20201;-82
2023/03/03 07:15:40;;;;;;;103.17;31.53;;;-1.50;99.90;;;;;;4769213;30;20216;-75
2023/03/03 07:18:26;;;;;;;107.90;30.77;;;-1.50;99.90;;;;;;4771267;30;20203;-81
2023/03/03 07:20:53;;;;;;;103.70;30.70;;;-1.40;99.90;;;;;;4770897;30;20266;-81
2023/03/03 07:23:24;;;;;;;93.10;29.70;;;-1.40;99.90;;;;;;4770036;30;20238;-80
2023/03/03 07:25:52;;;;;;;92.77;28.10;;;-1.40;99.90;;;;;;4769310;30;20243;-80
2023/03/03 07:28:27;;;;;;;93.27;28.00;;;-1.30;99.90;;;;;;4770141;30;20211;-78
2023/03/03 07:30:56;;;;;;;95.47;27.27;;;-1.30;99.90;;;;;;4768681;30;20721;-78
2023/03/03 07:33:30;;;;;;;95.23;28.93;;;-1.30;99.90;;;;;;4769121;30;20313;-75
2023/03/03 07:35:58;;;;;;;103.77;29.37;;;-1.30;99.90;;;;;;4768804;30;20304;-80
2023/03/03 07:38:37;;;;;;;95.47;27.27;;;-1.30;99.90;;;;;;4770442;30;20206;-82
2023/03/03 07:41:13;;;;;;;95.83;26.83;;;-1.30;99.90;;;;;;4769279;30;20205;-81
2023/03/03 07:43:49;;;;;;;96.37;25.93;;;-1.30;99.90;;;;;;4770106;30;20208;-83
2023/03/03 07:46:23;;;;;;;104.83;26.63;;;-1.30;99.90;;;;;;4770555;30;20614;-77
2023/03/03 07:48:52;;;;;;;99.80;27.00;;;-1.30;99.90;;;;;;4769247;30;20215;-81
2023/03/03 07:51:27;;;;;;;95.20;27.57;;;-1.20;99.90;;;;;;4769133;30;20630;-76
2023/03/03 07:54:11;;;;;;;88.30;26.10;;;-1.20;99.90;;;;;;4769208;30;20219;-74
2023/03/03 07:56:38;;;;;;;100.33;26.97;;;-1.10;99.90;;;;;;4768230;30;20202;-80
2023/03/03 07:59:23;;;;;;;101.33;27.97;;;-0.90;99.90;;;;;;4768846;30;20270;-74
2023/03/03 08:01:54;;;;;;;102.63;27.57;;;-1.00;99.90;;;;;;4755740;30;20216;-81
2023/03/03 08:04:34;;;;;;;96.03;26.50;;;-1.10;99.90;;;;;;4772612;30;20213;-78
2023/03/03 08:07:02;;;;;;;98.20;26.70;;;-1.00;99.90;;;;;;4772490;30;20248;-73
2023/03/03 08:09:36;;;;;;;102.90;28.07;;;-1.00;99.90;;;;;;4772829;30;20207;-79
2023/03/03 08:12:06;;;;;;;115.17;30.33;;;-0.90;99.90;;;;;;4772510;30;20233;-79
2023/03/03 08:14:35;;;;;;;101.87;28.20;;;-0.90;99.90;;;;;;4772904;30;20195;-78
2023/03/03 08:17:13;;;;;;;108.53;29.27;;;-0.80;99.90;;;;;;4770990;30;20256;-77
2023/03/03 08:19:40;;;;;;;100.63;28.30;;;-0.70;99.90;;;;;;4769344;30;20309;-81
2023/03/03 08:22:30;;;;;;;101.40;27.93;;;-0.50;99.90;;;;;;4771942;30;20221;-79
2023/03/03 08:24:56;;;;;;;107.70;28.93;;;-0.50;99.90;;;;;;4771561;30;20258;-78
2023/03/03 08:27:23;;;;;;;107.73;28.70;;;-0.40;99.90;;;;;;4771696;30;20212;-80
2023/03/03 08:29:50;;;;;;;92.47;28.73;;;-0.30;99.90;;;;;;4780326;30;20249;-80
2023/03/03 08:32:17;;;;;;;89.87;28.10;;;-0.30;99.90;;;;;;4791506;30;20211;-77
2023/03/03 08:34:44;;;;;;;88.23;26.67;;;-0.20;99.90;;;;;;4774455;30;20216;-74
2023/03/03 08:37:11;;;;;;;88.63;26.43;;;-0.20;99.90;;;;;;4774206;30;20639;-74
2023/03/03 08:39:38;;;;;;;85.20;26.80;;;-0.10;99.90;;;;;;4774301;30;20219;-74
2023/03/03 08:42:05;;;;;;;92.90;29.47;;;0.00;99.90;;;;;;4774079;30;20218;-72
2023/03/03 08:44:32;;;;;;;90.77;27.20;;;0.00;99.90;;;;;;4774632;30;20204;-74
2023/03/03 08:46:58;;;;;;;86.57;26.53;;;0.10;99.90;;;;;;4774144;30;20216;-77
2023/03/03 08:49:25;;;;;;;79.47;25.73;;;0.20;99.90;;;;;;4794304;30;20208;-78
2023/03/03 08:51:53;;;;;;;82.87;25.87;;;0.20;99.90;;;;;;4793178;30;20628;-80
2023/03/03 08:54:20;;;;;;;81.63;26.83;;;0.30;99.90;;;;;;4791617;30;20569;-80
2023/03/03 08:56:47;;;;;;;80.20;26.60;;;0.30;99.90;;;;;;4776262;30;20208;-73
2023/03/03 08:59:14;;;;;;;79.50;27.30;;;0.40;99.90;;;;;;4790757;30;20203;-75
2023/03/03 09:01:43;;;;;;;80.80;26.27;;;0.50;99.90;;;;;;4774660;30;20200;-73
2023/03/03 09:04:10;;;;;;;78.43;25.73;;;0.40;99.90;;;;;;4791010;30;20210;-72
2023/03/03 09:06:38;;;;;;;80.23;25.83;;;0.30;99.90;;;;;;4792010;30;20204;-73
2023/03/03 09:09:05;;;;;;;79.80;25.27;;;0.20;99.90;;;;;;4774524;30;20222;-74
2023/03/03 09:11:32;;;;;;;66.77;24.23;;;0.30;99.90;;;;;;4773355;30;20244;-77
2023/03/03 09:14:14;;;;;;;64.30;22.17;;;0.30;99.90;;;;;;4773802;30;20299;-76
2023/03/03 09:16:51;;;;;;;64.47;22.47;;;0.20;99.90;;;;;;4773786;30;20237;-76
2023/03/03 09:19:26;;;;;;;64.87;22.83;;;0.20;99.90;;;;;;4790381;30;20195;-81
2023/03/03 09:21:55;;;;;;;63.47;21.47;;;0.20;99.90;;;;;;4774282;30;20299;-81
2023/03/03 09:24:35;;;;;;;62.03;20.90;;;0.00;99.90;;;;;;4774121;30;20208;-78
2023/03/03 09:27:11;;;;;;;65.97;23.23;;;0.00;99.90;;;;;;4759002;30;20303;-75
2023/03/03 09:29:37;;;;;;;62.43;22.17;;;0.10;99.90;;;;;;4773786;30;20240;-74
2023/03/03 09:32:42;;;;;;;67.83;23.67;;;0.10;99.90;;;;;;4773587;30;20723;-76
2023/03/03 09:35:35;;;;;;;65.40;22.43;;;0.10;99.90;;;;;;4773861;30;20203;-76
2023/03/03 09:38:20;;;;;;;64.93;21.33;;;0.30;99.90;;;;;;4773895;30;20243;-81
2023/03/03 09:41:28;;;;;;;52.30;20.90;;;0.40;99.90;;;;;;4790211;30;20200;-80
2023/03/03 09:44:16;;;;;;;58.47;20.00;;;0.40;99.90;;;;;;4759039;30;20273;-76
2023/03/03 09:46:48;;;;;;;62.37;20.90;;;0.30;99.90;;;;;;4773511;30;20211;-79
2023/03/03 09:49:24;;;;;;;56.77;20.80;;;0.20;99.90;;;;;;4789691;30;20204;-83
2023/03/03 09:52:02;;;;;;;61.73;21.60;;;0.20;99.90;;;;;;4773383;30;20228;-77
2023/03/03 09:54:38;;;;;;;63.57;22.77;;;0.20;99.90;;;;;;4773404;30;20215;-77
2023/03/03 09:57:21;;;;;;;59.97;22.10;;;0.20;99.90;;;;;;4773212;30;20238;-78
2023/03/03 10:00:18;;;;;;;63.80;22.40;;;0.30;99.90;;;;;;4773175;30;20304;-81
2023/03/03 10:03:15;;;;;;;68.00;23.10;;;0.40;99.90;;;;;;4789119;30;20232;-78
2023/03/03 10:05:52;;;;;;;68.37;23.83;;;0.40;99.90;;;;;;4789049;30;20193;-73
2023/03/03 10:08:41;;;;;;;69.33;24.10;;;0.30;99.90;;;;;;4773009;30;20219;-75
2023/03/03 10:11:10;;;;;;;72.53;23.77;;;0.40;99.90;;;;;;4772476;30;20350;-75
2023/03/03 10:14:05;;;;;;;64.27;24.37;;;0.50;99.90;;;;;;4789019;30;20211;-77
2023/03/03 10:16:50;;;;;;;62.97;22.47;;;0.40;99.90;;;;;;4772705;30;20253;-74
2023/03/03 10:19:37;;;;;;;72.60;24.17;;;0.40;99.90;;;;;;4772578;30;20347;-73
2023/03/03 10:22:16;;;;;;;67.43;24.27;;;0.40;99.90;;;;;;4772586;30;20203;-75
2023/03/03 10:25:07;;;;;;;73.20;26.60;;;0.60;99.90;;;;;;4772063;30;20339;-75
2023/03/03 10:28:08;;;;;;;61.37;22.00;;;0.60;99.90;;;;;;4683851;30;20212;-74
2023/03/03 10:30:44;;;;;;;63.87;23.20;;;0.50;99.90;;;;;;4683730;30;20239;-75
2023/03/03 10:33:51;;;;;;;70.67;23.80;;;0.40;99.90;;;;;;4698667;30;20215;-78
2023/03/03 10:36:24;;;;;;;67.17;24.43;;;0.30;99.90;;;;;;4684144;30;20214;-81
2023/03/03 10:39:02;;;;;;;60.77;22.90;;;0.40;99.90;;;;;;4684493;30;20660;-80
2023/03/03 10:41:47;;;;;;;68.70;23.03;;;0.40;99.90;;;;;;4698846;30;20208;-80
2023/03/03 10:44:25;;;;;;;65.07;23.83;;;0.50;99.90;;;;;;4684219;30;20216;-80
2023/03/03 10:47:16;;;;;;;70.47;25.07;;;0.50;99.90;;;;;;4769398;30;20211;-78
2023/03/03 10:50:10;;;;;;;65.73;21.93;;;0.50;99.90;;;;;;4772663;30;20196;-79
2023/03/03 10:53:04;;;;;;;61.73;21.10;;;0.50;99.90;;;;;;4772516;30;20232;-76
2023/03/03 10:55:37;;;;;;;65.03;23.27;;;0.60;99.90;;;;;;4772090;30;20212;-79
2023/03/03 10:58:33;;;;;;;74.27;25.57;;;0.30;99.90;;;;;;4789240;30;20285;-80
2023/03/03 11:01:06;;;;;;;73.70;24.87;;;0.20;99.90;;;;;;4773638;30;20243;-77
2023/03/03 11:03:32;;;;;;;69.40;24.17;;;0.30;99.90;;;;;;4779035;30;20236;-79
2023/03/03 11:06:14;;;;;;;71.23;23.50;;;0.30;99.90;;;;;;4773891;30;20231;-72
2023/03/03 11:09:19;;;;;;;68.77;22.13;;;0.40;99.90;;;;;;4774599;30;20282;-71
2023/03/03 11:11:56;;;;;;;62.63;22.27;;;0.40;99.90;;;;;;4792484;30;20242;-79
2023/03/03 11:14:46;;;;;;;59.30;21.60;;;0.50;99.90;;;;;;4756785;30;20239;-77
2023/03/03 11:17:24;;;;;;;65.07;21.77;;;0.50;99.90;;;;;;4714851;30;20218;-74
2023/03/03 11:20:19;;;;;;;62.97;22.23;;;0.40;99.90;;;;;;4714994;30;20232;-82
2023/03/03 11:23:14;;;;;;;70.57;22.73;;;0.20;99.90;;;;;;4715038;30;20327;-79
2023/03/03 11:26:13;;;;;;;63.20;22.03;;;0.20;99.90;;;;;;4696187;30;20210;-78
2023/03/03 11:28:53;;;;;;;66.43;21.73;;;0.40;99.90;;;;;;4663280;30;20279;-76
2023/03/03 11:31:47;;;;;;;64.57;22.23;;;0.30;99.90;;;;;;4648793;30;20243;-74
2023/03/03 11:34:30;;;;;;;59.23;21.10;;;0.40;99.90;;;;;;4644489;30;20224;-72
2023/03/03 11:37:00;;;;;;;66.10;22.63;;;0.40;99.90;;;;;;4663096;30;20215;-76
2023/03/03 11:39:27;;;;;;;71.10;23.97;;;0.20;99.90;;;;;;4662973;30;20220;-72
2023/03/03 11:41:57;;;;;;;66.43;23.80;;;0.20;99.90;;;;;;4648695;30;20209;-80
2023/03/03 11:44:44;;;;;;;61.97;23.07;;;0.30;99.90;;;;;;4648864;30;20207;-75
2023/03/03 11:47:20;;;;;;;56.80;19.70;;;0.30;99.90;;;;;;4648754;30;20216;-75
2023/03/03 11:50:27;;;;;;;47.83;18.67;;;0.40;99.90;;;;;;4649013;30;20211;-75
2023/03/03 11:53:19;;;;;;;45.17;17.30;;;0.20;99.90;;;;;;4648829;30;20238;-73
2023/03/03 11:55:54;;;;;;;39.73;15.80;;;0.30;99.90;;;;;;4731996;30;20198;-78
2023/03/03 11:58:28;;;;;;;43.80;16.27;;;0.20;99.90;;;;;;4717597;30;20209;-76
2023/03/03 12:01:19;;;;;;;41.17;16.63;;;0.10;99.90;;;;;;4732465;30;20209;-75
2023/03/03 12:03:57;;;;;;;38.93;16.37;;;0.10;99.90;;;;;;4749156;30;20216;-77
2023/03/03 12:07:01;;;;;;;41.80;16.80;;;0.20;99.90;;;;;;4773304;30;20208;-75
2023/03/03 12:09:49;;;;;;;42.07;17.77;;;0.20;99.90;;;;;;4774985;30;20196;-76
2023/03/03 12:12:25;;;;;;;42.17;16.77;;;0.00;99.90;;;;;;4791414;30;20733;-74
2023/03/03 12:15:24;;;;;;;40.57;17.10;;;0.00;99.90;;;;;;4773007;30;20230;-74
2023/03/03 12:18:10;;;;;;;39.63;16.80;;;0.10;99.90;;;;;;4771022;30;20207;-74
2023/03/03 12:21:17;;;;;;;46.60;18.53;;;0.20;99.90;;;;;;4770850;30;20212;-75
2023/03/03 12:24:17;;;;;;;39.90;16.50;;;0.10;99.90;;;;;;4765467;30;20235;-73
2023/03/03 12:27:24;;;;;;;44.03;17.33;;;0.20;99.90;;;;;;4771164;30;20643;-73
2023/03/03 12:30:05;;;;;;;45.67;18.63;;;0.00;99.90;;;;;;4770819;30;20242;-72
2023/03/03 12:32:48;;;;;;;49.27;19.70;;;0.00;99.90;;;;;;4771311;30;20229;-75
2023/03/03 12:35:34;;;;;;;51.63;19.77;;;-0.10;99.90;;;;;;4786918;30;20640;-71
2023/03/03 12:38:12;;;;;;;48.70;18.47;;;-0.10;99.90;;;;;;4771095;30;20208;-72
2023/03/03 12:40:53;;;;;;;46.13;18.07;;;-0.10;99.90;;;;;;4770798;30;20227;-72
2023/03/03 12:43:38;;;;;;;46.57;18.77;;;0.00;99.90;;;;;;4770930;30;20207;-72
2023/03/03 12:46:36;;;;;;;46.43;17.70;;;0.00;99.90;;;;;;4770844;30;20214;-72
2023/03/03 12:49:04;;;;;;;45.77;16.83;;;0.00;99.90;;;;;;4774121;30;20211;-72
2023/03/03 12:51:45;;;;;;;37.23;15.33;;;0.00;99.90;;;;;;4774240;30;20232;-75
2023/03/03 12:54:15;;;;;;;38.97;15.23;;;0.00;99.90;;;;;;4790243;30;20211;-75
2023/03/03 12:56:56;;;;;;;40.37;15.57;;;0.00;99.90;;;;;;4773887;30;20656;-72